Time;durP1;ratioP1;P1;durP2;ratioP2;P2;SDS_P1;SDS_P2;PMS_P1;PMS_P2;Temp;Humidity;BMP_temperature;BMP_pressure;BME280_temperature;BME280_humidity;BME280_pressure;Samples;Min_cycle;Max_cycle;Signal;HPM_P1;HPM_P2
2022/11/22 00:01:21;;;;;;;8.50;3.75;;;;;;;5.79;100.00;99055.56;5049201;28;20028;-70
2022/11/22 00:03:46;;;;;;;9.75;4.20;;;;;;;5.75;100.00;99057.84;5050069;28;20049;-70
2022/11/22 00:06:11;;;;;;;10.70;4.78;;;;;;;5.74;100.00;99058.88;5050600;28;20045;-70
2022/11/22 00:08:37;;;;;;;12.10;5.35;;;;;;;5.78;100.00;99073.28;5049551;28;20025;-70
2022/11/22 00:11:02;;;;;;;9.32;4.88;;;;;;;5.77;100.00;99055.00;5050815;28;20095;-70
2022/11/22 00:13:28;;;;;;;13.50;5.68;;;;;;;5.78;100.00;99052.13;5050732;28;20485;-70
2022/11/22 00:16:01;;;;;;;11.13;4.88;;;;;;;5.85;100.00;99057.41;5050383;28;20029;-70
2022/11/22 00:18:28;;;;;;;10.93;5.18;;;;;;;5.79;100.00;99051.13;5050478;28;20517;-70
2022/11/22 00:20:53;;;;;;;12.77;5.05;;;;;;;5.86;100.00;99059.00;5050457;28;20037;-70
2022/11/22 00:23:18;;;;;;;9.68;4.85;;;;;;;5.88;100.00;99063.06;5050282;28;20056;-70
2022/11/22 00:25:44;;;;;;;10.25;4.57;;;;;;;5.88;100.00;99057.78;5050489;28;20116;-70
2022/11/22 00:28:09;;;;;;;10.15;5.20;;;;;;;5.92;100.00;99064.28;5049285;28;20071;-70
2022/11/22 00:30:35;;;;;;;10.48;4.55;;;;;;;5.91;100.00;99054.72;5050007;28;20033;-70
2022/11/22 00:33:00;;;;;;;12.73;4.35;;;;;;;5.95;100.00;99064.91;5049547;28;20610;-70
2022/11/22 00:35:25;;;;;;;13.75;5.32;;;;;;;5.93;100.00;99054.50;5049109;28;20029;-70
2022/11/22 00:37:51;;;;;;;10.73;4.80;;;;;;;5.96;100.00;99059.41;5050094;28;20108;-68
2022/11/22 00:40:16;;;;;;;11.80;5.85;;;;;;;5.99;100.00;99060.81;5050176;28;20082;-68
2022/11/22 00:42:41;;;;;;;12.27;5.05;;;;;;;6.00;100.00;99059.78;5050134;28;20503;-69
2022/11/22 00:45:07;;;;;;;12.43;5.03;;;;;;;5.99;100.00;99064.28;5048460;28;20393;-69
2022/11/22 00:47:32;;;;;;;9.77;4.90;;;;;;;5.94;100.00;99056.16;5049655;28;20468;-68
2022/11/22 00:49:58;;;;;;;9.95;4.75;;;;;;;5.98;100.00;99059.22;5049954;28;20041;-69
2022/11/22 00:52:23;;;;;;;13.65;5.68;;;;;;;5.97;100.00;99063.66;5049954;28;20029;-68
2022/11/22 00:54:48;;;;;;;10.27;4.32;;;;;;;5.93;100.00;99055.34;5049953;28;20029;-69
2022/11/22 00:57:14;;;;;;;12.50;4.90;;;;;;;5.93;100.00;99055.34;5048657;28;20119;-69
2022/11/22 00:59:39;;;;;;;7.00;3.95;;;;;;;6.00;100.00;99076.50;5048754;28;20124;-68
2022/11/22 01:02:04;;;;;;;11.73;4.55;;;;;;;6.01;100.00;99064.06;5048467;28;20087;-68
2022/11/22 01:04:30;;;;;;;7.63;4.50;;;;;;;5.99;100.00;99064.28;5049606;28;20076;-69
2022/11/22 01:06:55;;;;;;;13.73;5.03;;;;;;;5.89;100.00;99038.25;5049248;28;20082;-68
2022/11/22 01:09:22;;;;;;;9.07;4.35;;;;;;;5.88;100.00;99047.19;5049851;28;20033;-68
2022/11/22 01:11:48;;;;;;;11.38;4.38;;;;;;;5.92;100.00;99047.56;5049794;28;20041;-68
2022/11/22 01:14:14;;;;;;;11.27;4.88;;;;;;;5.89;100.00;99055.94;5049568;28;20435;-69
2022/11/22 01:16:40;;;;;;;12.13;6.13;;;;;;;5.86;100.00;99061.66;5049705;28;20417;-69
2022/11/22 01:19:05;;;;;;;9.55;4.53;;;;;;;5.82;100.00;99057.81;5049432;28;20044;-68
2022/11/22 01:21:31;;;;;;;10.65;5.03;;;;;;;5.77;100.00;99060.28;5049546;28;20036;-69
2022/11/22 01:23:56;;;;;;;10.80;4.32;;;;;;;5.81;100.00;99064.13;5049419;28;20451;-68
2022/11/22 01:26:21;;;;;;;13.98;4.80;;;;;;;5.77;100.00;99062.94;5048325;28;20039;-68
2022/11/22 01:28:47;;;;;;;11.73;4.75;;;;;;;5.72;100.00;99058.25;5049545;28;20529;-68
2022/11/22 01:31:12;;;;;;;6.90;3.97;;;;;;;5.68;100.00;99067.63;5049119;28;20032;-68
2022/11/22 01:33:37;;;;;;;12.00;5.00;;;;;;;5.65;100.00;99062.75;5048389;28;20029;-68
2022/11/22 01:36:03;;;;;;;9.93;4.22;;;;;;;5.63;100.00;99060.34;5048542;28;20372;-68
2022/11/22 01:38:28;;;;;;;7.60;3.45;;;;;;;5.56;100.00;99059.53;5047612;28;20127;-68
2022/11/22 01:40:54;;;;;;;7.75;3.90;;;;;;;5.54;100.00;99074.78;5049369;28;20059;-68
2022/11/22 01:43:24;;;;;;;9.05;3.90;;;;;;;5.48;100.00;99068.50;5049342;28;20041;-68
2022/11/22 01:45:52;;;;;;;14.10;4.50;;;;;;;5.46;100.00;99081.13;5049005;28;20037;-70
2022/11/22 01:48:36;;;;;;;7.93;3.80;;;;;;;5.44;100.00;99071.75;5049150;28;20029;-69
2022/11/22 01:51:08;;;;;;;8.60;2.95;;;;;;;5.33;100.00;99072.41;5049167;28;20035;-68
2022/11/22 01:53:37;;;;;;;9.27;2.70;;;;;;;5.32;100.00;99068.97;5047999;28;20454;-68
2022/11/22 01:56:06;;;;;;;11.52;3.80;;;;;;;5.32;100.00;99079.53;5049184;28;20021;-69
2022/11/22 01:58:35;;;;;;;9.32;3.88;;;;;;;5.32;100.00;99089.25;5049215;28;20033;-68
2022/11/22 02:01:01;;;;;;;9.75;3.22;;;;;;;5.30;100.00;99076.28;5049187;28;20442;-68
2022/11/22 02:03:29;;;;;;;9.07;3.65;;;;;;;5.26;100.00;99078.50;5047704;28;20139;-68
2022/11/22 02:05:55;;;;;;;10.68;3.60;;;;;;;5.28;100.00;99097.59;5048099;28;20029;-68
2022/11/22 02:08:38;;;;;;;5.63;3.30;;;;;;;5.22;100.00;99085.22;5048557;28;20040;-68
2022/11/22 02:11:05;;;;;;;6.95;2.80;;;;;;;5.19;100.00;99090.13;5049071;28;20040;-69
2022/11/22 02:13:34;;;;;;;10.35;3.22;;;;;;;5.18;100.00;99089.28;5048436;28;20053;-68
2022/11/22 02:16:00;;;;;;;7.78;3.00;;;;;;;5.13;100.00;99089.09;5048808;28;20108;-69
2022/11/22 02:18:27;;;;;;;9.68;3.90;;;;;;;5.15;100.00;99100.28;5048997;28;20584;-68
2022/11/22 02:20:53;;;;;;;9.93;2.78;;;;;;;5.10;100.00;99086.84;5049051;28;20028;-68
2022/11/22 02:23:34;;;;;;;10.98;3.10;;;;;;;5.14;100.00;99093.38;5048882;28;20095;-70
2022/11/22 02:26:00;;;;;;;6.55;2.85;;;;;;;5.17;100.00;99092.97;5048806;28;20464;-68
2022/11/22 02:28:28;;;;;;;8.45;3.15;;;;;;;5.19;100.00;99095.41;5047570;28;20499;-68
2022/11/22 02:30:54;;;;;;;11.68;3.00;;;;;;;5.16;100.00;99096.63;5048952;28;20036;-68
2022/11/22 02:33:19;;;;;;;13.60;2.90;;;;;;;5.14;100.00;99093.38;5052041;28;20032;-68
2022/11/22 02:35:44;;;;;;;11.48;3.58;;;;;;;5.13;100.00;99098.84;5052564;28;20029;-69
2022/11/22 02:38:31;;;;;;;11.20;2.90;;;;;;;5.10;100.00;99094.78;5051760;28;20151;-68
2022/11/22 02:41:03;;;;;;;11.05;3.10;;;;;;;5.11;100.00;99107.00;5052422;28;20025;-68
2022/11/22 02:43:33;;;;;;;7.60;3.40;;;;;;;5.08;100.00;99102.09;5052013;28;20384;-68
2022/11/22 02:46:07;;;;;;;17.63;3.72;;;;;;;5.12;100.00;99113.91;5052312;28;20080;-68
2022/11/22 02:48:33;;;;;;;11.20;3.42;;;;;;;5.13;100.00;99120.00;5052200;28;20075;-68
2022/11/22 02:50:59;;;;;;;15.73;4.88;;;;;;;5.12;100.00;99119.19;5050929;28;20025;-68
2022/11/22 02:53:24;;;;;;;8.38;2.75;;;;;;;5.09;100.00;99119.59;5052315;28;20482;-68
2022/11/22 02:55:49;;;;;;;8.50;3.15;;;;;;;5.11;100.00;99120.22;5052279;28;20064;-70
2022/11/22 02:58:15;;;;;;;7.45;3.03;;;;;;;5.08;100.00;99122.44;5052128;28;20067;-68
2022/11/22 03:00:40;;;;;;;10.80;3.15;;;;;;;5.06;100.00;99127.94;5052106;28;20036;-68
2022/11/22 03:03:06;;;;;;;8.25;3.25;;;;;;;5.03;100.00;99126.50;5051859;28;20039;-70
2022/11/22 03:05:31;;;;;;;7.82;2.67;;;;;;;5.00;100.00;99120.81;5052036;28;20484;-68
2022/11/22 03:07:57;;;;;;;11.25;2.30;;;;;;;4.99;100.00;99127.09;5052026;28;20388;-70
2022/11/22 03:10:22;;;;;;;4.85;2.22;;;;;;;4.97;100.00;99114.09;5051087;28;20366;-68
2022/11/22 03:12:47;;;;;;;10.93;4.05;;;;;;;4.97;100.00;99134.41;5051455;28;20067;-70
2022/11/22 03:15:13;;;;;;;11.48;4.07;;;;;;;4.94;100.00;99125.06;5051712;28;20116;-68
2022/11/22 03:17:38;;;;;;;10.50;2.55;;;;;;;4.92;100.00;99132.38;5050463;28;20036;-68
2022/11/22 03:20:04;;;;;;;9.10;3.17;;;;;;;4.93;100.00;99139.31;5051584;28;20025;-70
2022/11/22 03:22:30;;;;;;;8.43;2.08;;;;;;;4.91;100.00;99140.53;5050352;28;20487;-68
2022/11/22 03:24:55;;;;;;;9.77;2.10;;;;;;;4.86;100.00;99132.38;5051779;28;20037;-68
2022/11/22 03:27:20;;;;;;;11.27;3.25;;;;;;;4.81;100.00;99140.91;5050390;28;20033;-68
2022/11/22 03:29:46;;;;;;;11.95;3.03;;;;;;;4.79;100.00;99149.03;5049887;28;20036;-68
2022/11/22 03:32:11;;;;;;;8.93;2.58;;;;;;;4.71;100.00;99146.56;5051377;28;20029;-68
2022/11/22 03:34:36;;;;;;;10.05;2.50;;;;;;;4.73;100.00;99147.19;5050142;28;20112;-68
2022/11/22 03:37:02;;;;;;;10.43;2.83;;;;;;;4.68;100.00;99149.63;5051522;28;20060;-68
2022/11/22 03:39:27;;;;;;;11.98;2.08;;;;;;;4.68;100.00;99154.91;5049601;28;20480;-68
2022/11/22 03:41:55;;;;;;;8.95;3.17;;;;;;;4.65;100.00;99151.84;5051021;28;20028;-68
2022/11/22 03:44:20;;;;;;;7.45;2.55;;;;;;;4.61;100.00;99146.97;5050157;28;20029;-68
2022/11/22 03:46:46;;;;;;;8.15;2.65;;;;;;;4.54;100.00;99148.78;5051321;28;20028;-68
2022/11/22 03:49:11;;;;;;;12.85;2.78;;;;;;;4.58;100.00;99152.66;5051269;28;20032;-68
2022/11/22 03:51:36;;;;;;;10.73;2.72;;;;;;;4.55;100.00;99157.50;5051222;28;20443;-68
2022/11/22 03:54:02;;;;;;;5.03;2.40;;;;;;;4.53;100.00;99154.25;5049662;28;20084;-68
2022/11/22 03:56:27;;;;;;;11.18;3.65;;;;;;;4.46;100.00;99156.88;5050632;28;20052;-68
2022/11/22 03:58:52;;;;;;;5.43;2.20;;;;;;;4.43;100.00;99152.00;5049722;28;20057;-68
2022/11/22 04:01:18;;;;;;;15.02;2.65;;;;;;;4.41;100.00;99158.50;5050896;28;20033;-68
2022/11/22 04:03:43;;;;;;;8.73;2.85;;;;;;;4.37;100.00;99153.59;5050513;28;20052;-68
2022/11/22 04:06:09;;;;;;;11.60;2.58;;;;;;;4.31;100.00;99157.03;5050843;28;20029;-68
2022/11/22 04:08:34;;;;;;;7.60;2.67;;;;;;;4.30;100.00;99162.53;5050693;28;20073;-68
2022/11/22 04:10:59;;;;;;;9.25;2.30;;;;;;;4.25;100.00;99164.94;5050267;28;20044;-68
2022/11/22 04:15:05;;;;;;;11.90;2.08;;;;;;;4.20;100.00;99154.16;5050475;28;20037;-68
2022/11/22 04:16:10;;;;;;;10.65;2.63;;;;;;;4.20;100.00;99160.25;5050712;28;20388;-68
2022/11/22 04:18:35;;;;;;;13.02;2.45;;;;;;;4.17;100.00;99165.94;5050557;28;20025;-68
2022/11/22 04:25:12;;;;;;;19.42;4.88;;;;;;;4.10;100.00;99162.44;5050760;28;20070;-68
2022/11/22 04:26:30;;;;;;;10.50;2.72;;;;;;;4.05;100.00;99160.38;5050362;28;20032;-68
2022/11/22 04:28:55;;;;;;;8.38;2.42;;;;;;;4.05;100.00;99173.56;5049131;28;20117;-68
2022/11/22 04:34:04;;;;;;;18.42;2.45;;;;;;;4.01;100.00;99175.00;5049600;28;20047;-68
2022/11/22 04:36:30;;;;;;;5.40;2.63;;;;;;;3.88;100.00;99172.28;5048881;28;20119;-68
2022/11/22 04:38:55;;;;;;;7.95;2.13;;;;;;;3.95;100.00;99194.22;5050284;28;20057;-68
2022/11/22 04:41:20;;;;;;;8.35;1.95;;;;;;;3.93;100.00;99193.63;5048604;28;20041;-68
2022/11/22 04:46:30;;;;;;;9.40;2.35;;;;;;;3.85;100.00;99188.47;5050249;28;20039;-68
2022/11/22 04:48:55;;;;;;;10.15;2.90;;;;;;;3.80;100.00;99175.88;5050110;28;20120;-70
2022/11/22 04:54:05;;;;;;;9.23;2.75;;;;;;;3.80;100.00;99177.69;5050062;28;20166;-69
2022/11/22 04:56:30;;;;;;;12.65;2.97;;;;;;;3.82;100.00;99194.13;5049670;28;20033;-68
2022/11/22 04:58:55;;;;;;;6.78;1.75;;;;;;;3.81;100.00;99197.78;5049805;28;20040;-68
2022/11/22 05:01:20;;;;;;;8.27;2.03;;;;;;;3.78;100.00;99192.91;5049966;28;20086;-68
2022/11/22 05:03:46;;;;;;;11.70;3.20;;;;;;;3.74;100.00;99198.53;5049657;28;20036;-68
2022/11/22 05:06:12;;;;;;;11.50;2.20;;;;;;;3.69;100.00;99193.06;5049748;28;20048;-70
2022/11/22 05:08:38;;;;;;;8.32;2.25;;;;;;;3.71;100.00;99188.38;5049663;28;20025;-68
2022/11/22 05:11:03;;;;;;;12.70;3.15;;;;;;;3.71;100.00;99196.28;5049671;28;20032;-68
2022/11/22 05:13:37;;;;;;;9.77;2.78;;;;;;;3.70;100.00;99201.78;5049033;28;20032;-68
2022/11/22 05:16:04;;;;;;;14.43;2.03;;;;;;;3.66;100.00;99205.78;5049571;28;20392;-69
2022/11/22 05:18:30;;;;;;;8.15;2.33;;;;;;;3.65;100.00;99201.53;5049193;28;20045;-68
2022/11/22 05:20:56;;;;;;;8.32;1.88;;;;;;;3.62;100.00;99205.38;5049465;28;20099;-70
2022/11/22 05:26:08;;;;;;;9.32;2.65;;;;;;;3.54;100.00;99208.16;5049476;28;20064;-69
2022/11/22 05:28:35;;;;;;;7.22;1.98;;;;;;;3.56;100.00;99214.03;5049371;28;20033;-69
2022/11/22 05:31:12;;;;;;;9.93;3.20;;;;;;;3.54;100.00;99216.06;5049544;28;20384;-69
2022/11/22 05:33:40;;;;;;;9.98;2.50;;;;;;;3.48;100.00;99204.47;5049540;28;20095;-69
2022/11/22 05:36:07;;;;;;;11.55;2.90;;;;;;;3.47;100.00;99208.09;5048221;28;20960;-70
2022/11/22 05:38:36;;;;;;;8.40;3.28;;;;;;;3.48;100.00;99199.19;5049333;28;20060;-70
2022/11/22 05:41:03;;;;;;;9.55;2.17;;;;;;;3.40;100.00;99191.41;5049468;28;20025;-71
2022/11/22 05:43:28;;;;;;;6.43;2.42;;;;;;;3.45;100.00;99199.56;5049002;28;20039;-71
2022/11/22 05:45:54;;;;;;;10.05;3.08;;;;;;;3.46;100.00;99198.56;5048853;28;20037;-70
2022/11/22 05:48:19;;;;;;;9.02;3.95;;;;;;;3.45;100.00;99206.66;5047715;28;20033;-70
2022/11/22 05:50:44;;;;;;;15.20;2.95;;;;;;;3.39;100.00;99194.25;5048928;28;20486;-70
2022/11/22 05:53:10;;;;;;;8.68;2.28;;;;;;;3.42;100.00;99199.94;5049262;28;20033;-70
2022/11/22 05:55:35;;;;;;;10.98;2.33;;;;;;;3.40;100.00;99198.50;5049317;28;20033;-70
2022/11/22 05:58:01;;;;;;;13.10;4.43;;;;;;;3.38;100.00;99198.72;5049243;28;20021;-70
2022/11/22 06:00:27;;;;;;;7.13;1.90;;;;;;;3.38;100.00;99203.16;5048895;28;20107;-71
2022/11/22 06:02:52;;;;;;;8.70;3.70;;;;;;;3.33;100.00;99195.84;5047835;28;20369;-70
2022/11/22 06:05:18;;;;;;;6.97;2.70;;;;;;;3.32;100.00;99203.91;5048952;28;20060;-70
2022/11/22 06:07:44;;;;;;;7.43;2.00;;;;;;;3.31;100.00;99215.47;5051345;28;20029;-70
2022/11/22 06:10:09;;;;;;;14.48;4.10;;;;;;;3.30;100.00;99217.28;5053047;28;20040;-70
2022/11/22 06:12:35;;;;;;;14.57;3.40;;;;;;;3.21;100.00;99203.44;5053086;28;20029;-70
2022/11/22 06:15:00;;;;;;;11.20;1.77;;;;;;;3.27;100.00;99212.38;5052471;28;20061;-70
2022/11/22 06:17:25;;;;;;;8.90;2.15;;;;;;;3.27;100.00;99201.84;5052528;28;20021;-70
2022/11/22 06:19:51;;;;;;;6.85;2.15;;;;;;;3.24;100.00;99204.88;5051247;28;20043;-70
2022/11/22 06:22:16;;;;;;;8.57;2.38;;;;;;;3.23;100.00;99205.88;5051128;28;20477;-70
2022/11/22 06:24:41;;;;;;;8.13;2.95;;;;;;;3.23;100.00;99208.53;5052733;28;20033;-70
2022/11/22 06:27:08;;;;;;;8.27;1.80;;;;;;;3.18;100.00;99203.00;5052806;28;20060;-70
2022/11/22 06:29:33;;;;;;;7.00;2.60;;;;;;;3.17;100.00;99203.97;5052691;28;20043;-70
2022/11/22 06:31:58;;;;;;;14.18;3.33;;;;;;;3.22;100.00;99205.06;5052706;28;20029;-70
2022/11/22 06:34:24;;;;;;;8.05;3.17;;;;;;;3.22;100.00;99207.72;5052598;28;20071;-70
2022/11/22 06:36:50;;;;;;;10.80;2.58;;;;;;;3.18;100.00;99201.16;5052549;28;20033;-70
2022/11/22 06:39:15;;;;;;;8.27;2.60;;;;;;;3.21;100.00;99205.25;5052392;28;20044;-70
2022/11/22 06:41:40;;;;;;;11.27;3.20;;;;;;;3.20;100.00;99203.63;5052431;28;20044;-70
2022/11/22 06:44:08;;;;;;;14.35;2.40;;;;;;;3.16;100.00;99199.72;5051121;28;20613;-70
2022/11/22 06:46:35;;;;;;;7.82;2.33;;;;;;;3.15;100.00;99204.19;5051728;28;20111;-70
2022/11/22 06:49:01;;;;;;;9.77;2.40;;;;;;;3.15;100.00;99209.47;5052422;28;20029;-68
2022/11/22 06:51:29;;;;;;;7.70;2.03;;;;;;;3.16;100.00;99210.28;5051808;28;20607;-68
2022/11/22 06:53:55;;;;;;;7.60;1.95;;;;;;;3.16;100.00;99212.91;5052104;28;20021;-70
2022/11/22 06:56:25;;;;;;;11.75;2.25;;;;;;;3.14;100.00;99222.81;5051019;28;20423;-70
2022/11/22 06:58:51;;;;;;;8.80;3.22;;;;;;;3.11;100.00;99224.00;5052246;28;20029;-70
2022/11/22 07:01:18;;;;;;;16.98;3.55;;;;;;;3.11;100.00;99223.19;5052089;28;20077;-70
2022/11/22 07:03:43;;;;;;;13.63;2.50;;;;;;;3.06;100.00;99226.38;5052008;28;20032;-70
2022/11/22 07:06:11;;;;;;;10.65;3.33;;;;;;;3.08;100.00;99240.19;5052109;28;20029;-70
2022/11/22 07:08:38;;;;;;;8.63;2.63;;;;;;;3.07;100.00;99230.66;5052102;28;20380;-70
2022/11/22 07:11:07;;;;;;;6.10;2.58;;;;;;;3.12;100.00;99245.88;5051366;28;20547;-70
2022/11/22 07:13:33;;;;;;;8.13;2.40;;;;;;;3.19;100.00;99252.84;5052022;28;20032;-70
2022/11/22 07:16:00;;;;;;;8.68;2.47;;;;;;;3.27;100.00;99254.53;5049679;28;20072;-70
2022/11/22 07:18:27;;;;;;;7.60;2.60;;;;;;;3.33;100.00;99247.69;5050915;28;20033;-70
2022/11/22 07:20:58;;;;;;;7.13;2.75;;;;;;;3.42;100.00;99250.00;5051867;28;20029;-70
2022/11/22 07:23:23;;;;;;;11.45;3.50;;;;;;;3.51;100.00;99258.59;5050109;28;20874;-70
2022/11/22 07:25:49;;;;;;;4.22;3.03;;;;;;;3.56;100.00;99250.13;5051634;28;20035;-71
2022/11/22 07:28:15;;;;;;;11.45;2.83;;;;;;;3.64;100.00;99250.81;5051650;28;20115;-70
2022/11/22 07:30:41;;;;;;;7.22;2.42;;;;;;;3.68;100.00;99262.59;5051634;28;20476;-70
2022/11/22 07:33:07;;;;;;;11.60;3.45;;;;;;;3.73;100.00;99256.75;5051574;28;20028;-71
2022/11/22 07:35:33;;;;;;;10.60;2.80;;;;;;;3.76;100.00;99258.19;5051200;28;20331;-70
2022/11/22 07:37:58;;;;;;;14.15;2.50;;;;;;;3.83;100.00;99261.72;5049343;28;20029;-68
2022/11/22 07:40:23;;;;;;;11.07;4.32;;;;;;;3.83;100.00;99259.06;5051002;28;20485;-70
2022/11/22 07:42:49;;;;;;;14.43;3.40;;;;;;;3.89;100.00;99264.38;5051493;28;20380;-69
2022/11/22 07:45:14;;;;;;;9.88;2.95;;;;;;;3.95;100.00;99273.34;5051090;28;20028;-70
2022/11/22 07:47:39;;;;;;;5.82;2.65;;;;;;;3.98;100.00;99269.50;5050941;28;20142;-70
2022/11/22 07:50:05;;;;;;;6.68;2.20;;;;;;;3.98;100.00;99261.59;5049522;28;20066;-67
2022/11/22 07:52:31;;;;;;;7.30;2.50;;;;;;;4.03;100.00;99270.53;5044458;28;20021;-70
2022/11/22 07:54:56;;;;;;;7.97;3.20;;;;;;;4.06;100.00;99264.06;5045507;28;20039;-69
2022/11/22 07:57:21;;;;;;;19.98;3.90;;;;;;;4.06;100.00;99258.78;5045259;28;20021;-68
2022/11/22 07:59:47;;;;;;;16.90;5.32;;;;;;;4.16;100.00;99270.63;5044808;28;20056;-68
2022/11/22 08:02:12;;;;;;;7.22;2.40;;;;;;;4.20;100.00;99273.72;5044865;28;20108;-69
2022/11/22 08:04:38;;;;;;;7.22;2.22;;;;;;;4.24;100.00;99267.00;5048479;28;20052;-68
2022/11/22 08:07:03;;;;;;;8.60;2.97;;;;;;;4.28;100.00;99270.91;5050974;28;20031;-68
2022/11/22 08:09:29;;;;;;;10.07;2.55;;;;;;;4.32;100.00;99266.88;5050669;28;20053;-68
2022/11/22 08:11:54;;;;;;;14.85;3.28;;;;;;;4.37;100.00;99266.28;5050980;28;20150;-68
2022/11/22 08:14:20;;;;;;;8.02;3.22;;;;;;;4.40;100.00;99263.25;5050555;28;20044;-68
2022/11/22 08:16:45;;;;;;;7.85;2.15;;;;;;;4.41;100.00;99254.31;5050678;28;20785;-68
2022/11/22 08:19:16;;;;;;;10.25;3.03;;;;;;;4.44;100.00;99261.03;5050031;28;20119;-68
2022/11/22 08:21:41;;;;;;;12.50;3.60;;;;;;;4.45;100.00;99257.38;5050389;28;20400;-68
2022/11/22 08:24:07;;;;;;;10.45;2.45;;;;;;;4.51;100.00;99267.19;5049802;28;20036;-68
2022/11/22 08:26:33;;;;;;;13.02;3.22;;;;;;;4.61;100.00;99267.59;5050268;28;20033;-68
2022/11/22 08:28:58;;;;;;;12.75;3.35;;;;;;;4.63;100.00;99260.31;5050175;28;20479;-68
2022/11/22 08:31:26;;;;;;;6.70;2.60;;;;;;;4.70;100.00;99270.91;5049909;28;20043;-71
2022/11/22 08:33:52;;;;;;;6.75;2.72;;;;;;;4.66;100.00;99267.81;5043450;28;20025;-69
2022/11/22 08:36:18;;;;;;;7.20;2.45;;;;;;;4.73;100.00;99263.38;5043587;28;20029;-69
2022/11/22 08:38:44;;;;;;;7.60;2.35;;;;;;;4.75;100.00;99264.00;5043607;28;20060;-70
2022/11/22 08:41:09;;;;;;;8.45;2.55;;;;;;;4.85;100.00;99266.28;5044197;28;20032;-70
2022/11/22 08:43:35;;;;;;;6.63;2.00;;;;;;;4.91;100.00;99275.25;5044006;28;20051;-67
2022/11/22 08:46:01;;;;;;;10.00;2.75;;;;;;;4.96;100.00;99270.19;5043966;28;20380;-68
2022/11/22 08:48:28;;;;;;;7.45;3.10;;;;;;;5.01;100.00;99279.13;5043792;28;20472;-67
2022/11/22 08:50:57;;;;;;;9.00;2.78;;;;;;;5.02;100.00;99279.94;5043344;28;20031;-69
2022/11/22 08:53:23;;;;;;;7.88;2.47;;;;;;;5.00;100.00;99282.78;5046340;28;20033;-68
2022/11/22 08:55:49;;;;;;;11.27;2.33;;;;;;;4.96;100.00;99280.75;5049863;28;20103;-69
2022/11/22 08:58:15;;;;;;;5.63;2.92;;;;;;;4.98;100.00;99276.88;5050023;28;20059;-69
2022/11/22 09:00:40;;;;;;;5.32;2.33;;;;;;;5.03;100.00;99289.47;5049487;28;20032;-69
2022/11/22 09:03:06;;;;;;;3.90;2.08;;;;;;;5.07;100.00;99290.72;5046697;28;20598;-69
2022/11/22 09:05:31;;;;;;;9.25;3.10;;;;;;;5.07;100.00;99284.63;5049383;28;20082;-69
2022/11/22 09:07:57;;;;;;;5.18;2.70;;;;;;;5.09;100.00;99290.53;5049138;28;20139;-69
2022/11/22 09:10:23;;;;;;;8.63;2.08;;;;;;;5.14;100.00;99282.81;5049792;28;20025;-69
2022/11/22 09:12:48;;;;;;;7.65;2.63;;;;;;;5.21;100.00;99283.63;5049682;28;20033;-70
2022/11/22 09:15:14;;;;;;;5.30;2.40;;;;;;;5.26;100.00;99289.94;5046654;28;20530;-70
2022/11/22 09:17:40;;;;;;;11.63;3.88;;;;;;;5.32;100.00;99288.34;5043153;28;20020;-70
2022/11/22 09:20:06;;;;;;;8.20;2.53;;;;;;;5.41;100.00;99299.53;5042830;28;20041;-68
2022/11/22 09:22:31;;;;;;;10.63;2.20;;;;;;;5.54;100.00;99306.69;5041600;28;20043;-69
2022/11/22 09:24:57;;;;;;;7.10;2.53;;;;;;;5.65;100.00;99300.78;5043283;28;20119;-69
2022/11/22 09:27:22;;;;;;;5.13;2.25;;;;;;;5.71;100.00;99310.53;5043406;28;20024;-69
2022/11/22 09:29:48;;;;;;;7.10;3.55;;;;;;;5.72;100.00;99314.81;5041596;28;20034;-69
2022/11/22 09:32:13;;;;;;;5.30;2.63;;;;;;;5.68;100.00;99309.09;5042783;28;20428;-71
2022/11/22 09:34:38;;;;;;;7.82;2.50;;;;;;;5.68;100.00;99295.06;5041184;28;20045;-70
2022/11/22 09:37:04;;;;;;;6.90;2.33;;;;;;;5.67;100.00;99301.41;5041182;28;20037;-70
2022/11/22 09:39:29;;;;;;;10.35;2.15;;;;;;;5.67;100.00;99304.03;5043077;28;20029;-70
2022/11/22 09:42:09;;;;;;;5.18;2.28;;;;;;;5.71;100.00;99295.50;5045511;28;20579;-70
2022/11/22 09:44:58;;;;;;;9.45;3.35;;;;;;;5.81;100.00;99295.06;5045575;28;20388;-70
2022/11/22 09:47:36;;;;;;;7.13;2.85;;;;;;;5.90;100.00;99293.88;5045874;28;20119;-70
2022/11/22 09:50:10;;;;;;;7.55;2.78;;;;;;;5.99;100.00;99291.84;5046197;28;20029;-70
2022/11/22 09:52:48;;;;;;;10.40;2.28;;;;;;;6.05;100.00;99298.97;5045844;28;20036;-70
2022/11/22 09:55:31;;;;;;;4.93;2.45;;;;;;;6.04;100.00;99291.22;5045691;28;20441;-70
2022/11/22 09:58:30;;;;;;;4.20;2.03;;;;;;;6.09;100.00;99294.09;5047261;28;20037;-70
2022/11/22 10:01:20;;;;;;;3.17;1.55;;;;;;;6.07;100.00;99298.75;5046477;28;20071;-70
2022/11/22 10:03:53;;;;;;;6.13;2.33;;;;;;;6.11;100.00;99292.84;5046222;28;20037;-70
2022/11/22 10:06:36;;;;;;;4.90;2.30;;;;;;;6.20;100.00;99295.28;5046837;28;21491;-70
2022/11/22 10:09:26;;;;;;;4.53;1.77;;;;;;;6.26;100.00;99300.56;5047158;28;20094;-69
2022/11/22 10:12:18;;;;;;;5.20;2.10;;;;;;;6.29;100.00;99296.72;5046551;28;20595;-71
2022/11/22 10:15:01;;;;;;;10.73;3.05;;;;;;;6.28;100.00;99301.16;5046516;28;20086;-70
2022/11/22 10:17:37;;;;;;;3.75;2.10;;;;;;;6.24;100.00;99299.16;5046914;28;20056;-71
2022/11/22 10:20:18;;;;;;;3.22;1.73;;;;;;;6.26;100.00;99307.69;5047105;28;20037;-71
2022/11/22 10:22:44;;;;;;;8.30;2.63;;;;;;;6.20;100.00;99304.03;5046790;28;20616;-73
2022/11/22 10:25:20;;;;;;;8.43;1.73;;;;;;;6.14;100.00;99300.38;5046771;28;20037;-70
2022/11/22 10:27:56;;;;;;;6.43;2.20;;;;;;;6.14;100.00;99296.94;5046780;28;20033;-70
2022/11/22 10:30:22;;;;;;;5.25;1.70;;;;;;;6.12;100.00;99299.75;5046880;28;20017;-72
2022/11/22 10:33:17;;;;;;;3.33;1.80;;;;;;;6.08;100.00;99292.47;5047095;28;20494;-69
2022/11/22 10:36:21;;;;;;;5.43;2.05;;;;;;;6.05;100.00;99291.03;5046801;28;20361;-70
2022/11/22 10:38:52;;;;;;;3.70;2.00;;;;;;;6.01;100.00;99281.88;5046485;28;20036;-70
2022/11/22 10:41:36;;;;;;;5.40;2.00;;;;;;;6.06;100.00;99286.56;5044422;28;20123;-71
2022/11/22 10:44:21;;;;;;;6.65;2.65;;;;;;;6.11;100.00;99273.53;5045842;28;20028;-70
2022/11/22 10:46:46;;;;;;;4.35;2.08;;;;;;;6.19;100.00;99280.44;5045948;28;20068;-70
2022/11/22 10:49:35;;;;;;;5.93;3.13;;;;;;;6.23;100.00;99282.44;5046563;28;20045;-71
2022/11/22 10:52:13;;;;;;;5.90;2.13;;;;;;;6.27;100.00;99275.72;5046201;28;20271;-71
2022/11/22 10:54:53;;;;;;;4.75;1.80;;;;;;;6.33;100.00;99277.53;5045440;28;20112;-70
2022/11/22 10:57:30;;;;;;;6.15;1.90;;;;;;;6.35;100.00;99264.91;5046112;28;20029;-69
2022/11/22 11:00:20;;;;;;;4.18;2.53;;;;;;;6.41;100.00;99271.19;5046159;28;20037;-71
2022/11/22 11:03:10;;;;;;;3.42;1.55;;;;;;;6.52;100.00;99262.63;5045987;28;20033;-70
2022/11/22 11:05:39;;;;;;;4.15;1.77;;;;;;;6.58;100.00;99271.56;5045171;28;21517;-72
2022/11/22 11:08:10;;;;;;;2.83;1.77;;;;;;;6.67;100.00;99264.19;5045224;28;20040;-70
2022/11/22 11:10:36;;;;;;;5.30;1.67;;;;;;;6.74;100.00;99252.53;5044382;28;20073;-71
2022/11/22 11:13:37;;;;;;;4.43;2.38;;;;;;;6.85;100.00;99255.53;5045772;28;20048;-71
2022/11/22 11:16:08;;;;;;;2.05;1.70;;;;;;;6.83;100.00;99234.53;5044086;28;20059;-69
2022/11/22 11:18:59;;;;;;;2.88;1.92;;;;;;;6.98;100.00;99253.63;5045500;28;20108;-70
2022/11/22 11:21:26;;;;;;;3.20;1.45;;;;;;;7.03;100.00;99240.56;5045412;28;20036;-69
2022/11/22 11:23:51;;;;;;;2.85;1.80;;;;;;;7.03;100.00;99231.78;5045124;28;20563;-68
2022/11/22 11:26:22;;;;;;;6.28;1.92;;;;;;;7.09;100.00;99233.56;5027533;28;20078;-68
2022/11/22 11:28:47;;;;;;;4.03;1.30;;;;;;;7.02;100.00;99223.03;5050919;28;20032;-69
2022/11/22 11:31:14;;;;;;;2.30;1.30;;;;;;;7.05;100.00;99237.69;5049991;28;20037;-69
2022/11/22 11:33:40;;;;;;;2.47;1.10;;;;;;;6.99;100.00;99239.34;5051236;28;20112;-69
2022/11/22 11:36:19;;;;;;;3.80;1.20;;;;;;;6.94;100.00;99239.19;5051241;28;20062;-69
2022/11/22 11:38:45;;;;;;;4.78;1.48;;;;;;;6.89;100.00;99244.31;5051067;28;20061;-69
2022/11/22 11:41:42;;;;;;;2.42;1.83;;;;;;;6.90;100.00;99226.56;5051139;28;20484;-69
2022/11/22 11:44:30;;;;;;;3.40;1.58;;;;;;;6.88;100.00;99225.97;5039030;28;20045;-69
2022/11/22 11:46:56;;;;;;;5.85;0.98;;;;;;;6.87;100.00;99225.16;5051188;28;20033;-69
2022/11/22 11:49:33;;;;;;;3.53;1.13;;;;;;;6.90;100.00;99224.72;5051123;28;20051;-69